Time;durP1;ratioP1;P1;durP2;ratioP2;P2;SDS_P1;SDS_P2;PMS_P1;PMS_P2;Temp;Humidity;BMP_temperature;BMP_pressure;BME280_temperature;BME280_humidity;BME280_pressure;Samples;Min_cycle;Max_cycle;Signal;HPM_P1;HPM_P2
2022/04/04 00:01:41;;;;;;;16.50;11.13;;;;;;;5.64;56.77;101789.09;5198393;28;20426;-40
2022/04/04 00:04:13;;;;;;;20.85;12.85;;;;;;;5.63;56.62;101785.63;5200209;28;20525;-40
2022/04/04 00:06:46;;;;;;;16.95;12.70;;;;;;;5.61;56.70;101774.41;5195727;28;20454;-40
2022/04/04 00:09:18;;;;;;;14.95;11.55;;;;;;;5.63;56.72;101774.28;5200091;28;20409;-40
2022/04/04 00:11:51;;;;;;;17.58;13.45;;;;;;;5.66;56.85;101771.47;5204539;28;20885;-39
2022/04/04 00:14:23;;;;;;;17.33;12.60;;;;;;;5.64;56.77;101765.50;5196970;28;20899;-39
2022/04/04 00:17:00;;;;;;;15.27;12.35;;;;;;;5.65;56.90;101768.03;5199502;28;20425;-42
2022/04/04 00:19:32;;;;;;;16.15;12.50;;;;;;;5.67;56.98;101758.31;5199260;28;20419;-40
2022/04/04 00:22:05;;;;;;;16.27;13.52;;;;;;;5.64;57.13;101753.25;5195986;28;20451;-41
2022/04/04 00:24:37;;;;;;;16.17;12.55;;;;;;;5.65;57.19;101749.69;5192535;28;20473;-39
2022/04/04 00:27:10;;;;;;;20.83;12.15;;;;;;;5.66;57.28;101750.50;5198443;28;20445;-39
2022/04/04 00:29:42;;;;;;;15.50;11.82;;;;;;;5.63;57.30;101732.38;5212292;28;20406;-40
2022/04/04 00:32:16;;;;;;;14.52;12.35;;;;;;;5.33;57.21;101680.94;5213564;28;20422;-41
2022/04/04 00:34:49;;;;;;;13.82;11.57;;;;;;;5.68;57.39;101723.28;5199239;28;20423;-43
2022/04/04 00:37:21;;;;;;;16.70;12.95;;;;;;;5.69;57.36;101730.19;5199246;28;20421;-39
2022/04/04 00:39:56;;;;;;;18.17;13.80;;;;;;;5.66;57.58;101711.19;5197885;28;20473;-40
2022/04/04 00:42:29;;;;;;;17.02;11.35;;;;;;;5.72;57.64;101709.03;5199563;28;20828;-40
2022/04/04 00:45:02;;;;;;;18.07;11.70;;;;;;;5.75;57.37;101708.00;5206025;28;20420;-40
2022/04/04 00:47:36;;;;;;;17.83;12.23;;;;;;;5.79;57.59;101701.63;5193137;28;20469;-40
2022/04/04 00:50:10;;;;;;;16.48;11.73;;;;;;;5.83;57.51;101695.25;5197617;28;20491;-43
2022/04/04 00:52:42;;;;;;;22.52;13.60;;;;;;;5.82;57.75;101687.47;5205311;28;20413;-41
2022/04/04 00:55:15;;;;;;;18.95;12.43;;;;;;;5.86;57.44;101689.81;5200175;28;20940;-38
2022/04/04 00:57:49;;;;;;;19.48;13.40;;;;;;;5.66;57.58;101643.91;5194311;28;20559;-42
2022/04/04 01:00:59;;;;;;;19.27;12.88;;;;;;;5.86;57.73;101674.09;5200256;28;20504;-40
2022/04/04 01:03:34;;;;;;;22.58;13.98;;;;;;;5.67;57.95;101636.91;5191593;28;20585;-42
2022/04/04 01:06:08;;;;;;;19.50;12.02;;;;;;;5.88;58.08;101661.72;5197721;28;20426;-40
2022/04/04 01:08:41;;;;;;;21.40;14.05;;;;;;;5.90;57.98;101659.84;5193460;28;20513;-40
2022/04/04 01:11:13;;;;;;;19.63;14.20;;;;;;;5.92;58.01;101668.47;5201923;28;20491;-42
2022/04/04 01:13:47;;;;;;;19.20;12.18;;;;;;;5.97;57.95;101644.59;5191202;28;20790;-44
2022/04/04 01:16:19;;;;;;;22.05;14.77;;;;;;;5.98;57.67;101639.25;5216990;28;20766;-39
2022/04/04 01:18:53;;;;;;;21.20;15.07;;;;;;;6.00;57.97;101634.72;5193470;28;20449;-40
2022/04/04 01:21:25;;;;;;;21.67;14.82;;;;;;;6.04;57.89;101624.03;5198334;28;20441;-40
2022/04/04 01:23:59;;;;;;;22.58;14.20;;;;;;;6.03;57.94;101619.75;5209912;28;20499;-40
2022/04/04 01:26:33;;;;;;;24.42;15.90;;;;;;;5.97;57.84;101602.63;5215669;28;20521;-40
2022/04/04 01:29:05;;;;;;;23.85;16.05;;;;;;;6.08;58.03;101615.03;5194418;28;20518;-39
2022/04/04 01:31:38;;;;;;;22.58;15.55;;;;;;;6.09;58.26;101611.47;5194493;28;20813;-41
2022/04/04 01:34:11;;;;;;;24.42;14.98;;;;;;;5.96;58.18;101591.31;5203477;28;20494;-43
2022/04/04 01:36:43;;;;;;;20.92;15.13;;;;;;;6.12;58.18;101592.91;5196650;28;20540;-40
2022/04/04 01:39:16;;;;;;;25.10;15.57;;;;;;;6.10;58.25;101590.41;5197964;28;20815;-41
2022/04/04 01:41:50;;;;;;;25.10;14.95;;;;;;;6.16;58.34;101587.38;5195808;28;20457;-40
2022/04/04 01:44:23;;;;;;;21.42;14.82;;;;;;;6.20;58.27;101588.00;5196854;28;20490;-40
2022/04/04 01:46:55;;;;;;;25.75;14.68;;;;;;;6.22;58.15;101586.97;5203530;28;20844;-41
2022/04/04 01:49:28;;;;;;;27.85;15.38;;;;;;;6.27;58.34;101583.19;5202977;28;20514;-40
2022/04/04 01:52:00;;;;;;;24.45;15.13;;;;;;;6.27;58.30;101573.53;5200033;28;21087;-41
2022/04/04 01:54:32;;;;;;;24.70;14.53;;;;;;;6.31;58.58;101566.28;5191147;28;20490;-40
2022/04/04 01:57:07;;;;;;;20.17;13.98;;;;;;;6.33;58.42;101557.38;5218059;28;20425;-39
2022/04/04 01:59:39;;;;;;;22.88;14.55;;;;;;;6.21;58.52;101517.06;5207245;28;20509;-40
2022/04/04 02:02:12;;;;;;;25.65;14.80;;;;;;;6.39;58.78;101549.06;5206215;28;20942;-42
2022/04/04 02:04:44;;;;;;;27.35;13.57;;;;;;;6.43;58.58;101537.41;5213506;28;20506;-39
2022/04/04 02:07:17;;;;;;;24.15;13.23;;;;;;;6.49;58.59;101532.69;5212207;28;20882;-40
2022/04/04 02:09:49;;;;;;;25.95;13.02;;;;;;;6.55;58.73;101529.66;5199092;28;20399;-39
2022/04/04 02:12:23;;;;;;;20.77;12.13;;;;;;;6.60;58.74;101517.91;5201935;28;20809;-40
2022/04/04 02:14:56;;;;;;;20.05;13.50;;;;;;;6.64;58.67;101505.38;5206157;28;20412;-39
2022/04/04 02:17:29;;;;;;;23.50;12.88;;;;;;;6.68;58.79;101501.59;5203092;28;20494;-40
2022/04/04 02:20:01;;;;;;;24.10;13.17;;;;;;;6.76;58.54;101494.03;5210621;28;20417;-39
2022/04/04 02:22:34;;;;;;;26.13;12.75;;;;;;;6.79;58.44;101485.09;5206721;28;20514;-40
2022/04/04 02:25:08;;;;;;;22.27;11.55;;;;;;;6.88;58.71;101473.94;5193557;28;20418;-40
2022/04/04 02:27:43;;;;;;;21.35;12.32;;;;;;;6.90;58.48;101472.84;5205608;28;20421;-40
2022/04/04 02:30:15;;;;;;;26.67;11.10;;;;;;;6.47;58.56;101386.72;5195942;28;20908;-41
2022/04/04 02:32:48;;;;;;;20.83;10.98;;;;;;;7.02;58.35;101459.78;5197728;28;20893;-39
2022/04/04 02:35:20;;;;;;;23.35;9.68;;;;;;;7.15;58.58;101465.81;5204084;28;20401;-40
2022/04/04 02:37:53;;;;;;;22.80;9.57;;;;;;;7.25;58.63;101445.81;5199027;28;20609;-40
2022/04/04 02:40:25;;;;;;;21.92;9.40;;;;;;;7.32;58.35;101447.03;5201635;28;20467;-41
2022/04/04 02:43:27;;;;;;;20.77;8.93;;;;;;;7.42;58.26;101430.59;5198371;28;20433;-42
2022/04/04 02:46:00;;;;;;;21.13;9.15;;;;;;;7.51;58.26;101435.16;5197857;28;20473;-40
2022/04/04 02:48:32;;;;;;;24.33;10.10;;;;;;;7.56;58.18;101422.53;5203130;28;20994;-39
2022/04/04 02:51:06;;;;;;;22.02;9.85;;;;;;;7.62;57.82;101416.78;5197647;28;20427;-40
2022/04/04 02:53:38;;;;;;;19.17;9.10;;;;;;;7.68;57.84;101410.22;5220982;28;20414;-41
2022/04/04 02:59:03;;;;;;;18.35;8.60;;;;;;;7.74;57.46;101386.94;5207654;28;20433;-40
2022/04/04 03:01:36;;;;;;;17.17;7.70;;;;;;;7.76;57.42;101390.28;5195191;28;20513;-45
2022/04/04 03:04:08;;;;;;;17.60;8.40;;;;;;;7.81;57.56;101382.03;5204309;28;20413;-41
2022/04/04 03:06:41;;;;;;;17.60;8.30;;;;;;;7.89;57.22;101363.03;5202349;28;20401;-43
2022/04/04 03:09:13;;;;;;;19.02;8.82;;;;;;;7.92;57.08;101370.69;5197729;28;20405;-41
2022/04/04 03:11:46;;;;;;;21.45;8.45;;;;;;;7.95;56.97;101359.91;5194806;28;20771;-40
2022/04/04 03:14:20;;;;;;;21.42;8.20;;;;;;;7.97;56.63;101356.22;5193975;28;20917;-40
2022/04/04 03:16:52;;;;;;;17.30;8.18;;;;;;;8.00;56.56;101357.78;5193528;28;20428;-40
2022/04/04 03:19:26;;;;;;;16.27;7.75;;;;;;;7.73;56.67;101295.84;5200853;28;20459;-42
2022/04/04 03:21:59;;;;;;;16.80;7.33;;;;;;;8.03;56.49;101342.59;5203426;28;20421;-40
2022/04/04 03:24:31;;;;;;;16.85;8.15;;;;;;;8.05;56.49;101339.81;5198624;28;20409;-40
2022/04/04 03:27:04;;;;;;;16.98;8.32;;;;;;;8.08;56.14;101334.31;5199043;28;20416;-41
2022/04/04 03:29:38;;;;;;;18.52;8.43;;;;;;;8.11;56.10;101323.56;5199518;28;20880;-40
2022/04/04 03:32:11;;;;;;;15.70;7.40;;;;;;;8.15;55.92;101332.06;5200838;28;20493;-48
2022/04/04 03:34:43;;;;;;;18.63;7.47;;;;;;;8.16;55.59;101321.41;5205565;28;20487;-40
2022/04/04 03:37:16;;;;;;;19.45;7.03;;;;;;;8.19;55.71;101315.91;5198127;28;20400;-40
2022/04/04 03:39:48;;;;;;;15.52;6.55;;;;;;;8.20;55.57;101296.50;5196411;28;20853;-40
2022/04/04 03:42:21;;;;;;;14.30;6.87;;;;;;;8.24;55.37;101292.69;5208918;28;20502;-40
2022/04/04 03:44:55;;;;;;;21.05;7.03;;;;;;;8.23;55.20;101291.00;5202370;28;20493;-40
2022/04/04 03:47:27;;;;;;;22.52;7.30;;;;;;;8.32;55.30;101286.78;5199637;28;20487;-40
2022/04/04 03:50:00;;;;;;;16.48;6.72;;;;;;;8.34;54.91;101281.41;5198926;28;20413;-43
2022/04/04 03:52:34;;;;;;;18.55;6.70;;;;;;;8.37;54.78;101265.38;5201311;28;20468;-41
2022/04/04 03:55:08;;;;;;;20.20;7.15;;;;;;;8.38;54.79;101261.78;5202183;28;20505;-42
2022/04/04 03:57:41;;;;;;;13.02;5.95;;;;;;;8.40;54.87;101265.16;5202696;28;20501;-46
2022/04/04 04:00:16;;;;;;;21.08;7.28;;;;;;;8.40;54.66;101254.63;5205380;28;20422;-41
2022/04/04 04:02:49;;;;;;;20.37;7.10;;;;;;;8.40;54.61;101257.28;5213908;28;20394;-40
2022/04/04 04:05:21;;;;;;;20.30;8.23;;;;;;;8.43;54.71;101238.59;5217774;28;20453;-41
2022/04/04 04:07:54;;;;;;;19.13;6.70;;;;;;;8.43;54.44;101230.69;5216995;28;20422;-42
2022/04/04 04:10:26;;;;;;;20.63;7.63;;;;;;;8.36;54.56;101216.31;5216654;28;20429;-40
2022/04/04 04:13:02;;;;;;;21.77;7.50;;;;;;;8.47;54.39;101226.84;5217264;28;20964;-40
2022/04/04 04:15:36;;;;;;;17.75;7.65;;;;;;;8.49;54.07;101212.59;5201786;28;20783;-39
2022/04/04 04:18:09;;;;;;;20.90;6.78;;;;;;;7.75;53.98;101123.06;5197184;28;20711;-39
2022/04/04 04:20:41;;;;;;;18.00;7.35;;;;;;;8.51;54.07;101204.56;5198684;28;20392;-39
2022/04/04 04:23:14;;;;;;;22.65;7.05;;;;;;;8.51;54.02;101204.56;5197231;28;20439;-40
2022/04/04 04:25:46;;;;;;;23.38;7.53;;;;;;;8.53;54.06;101197.38;5192155;28;20451;-41
2022/04/04 04:28:19;;;;;;;24.30;8.30;;;;;;;8.54;53.97;101199.03;5203495;28;20488;-39
2022/04/04 04:30:53;;;;;;;22.45;7.75;;;;;;;8.44;53.98;101171.81;5215626;28;20445;-41
2022/04/04 04:33:25;;;;;;;21.77;7.82;;;;;;;8.54;54.00;101194.59;5218306;28;20506;-40
2022/04/04 04:35:58;;;;;;;18.02;7.35;;;;;;;8.58;53.97;101173.28;5214437;28;20548;-40
2022/04/04 04:38:31;;;;;;;20.70;7.22;;;;;;;8.56;54.00;101169.97;5218796;28;20436;-41
2022/04/04 04:41:04;;;;;;;19.65;8.05;;;;;;;8.55;53.88;101184.94;5215446;28;20475;-40
2022/04/04 04:43:36;;;;;;;22.45;7.47;;;;;;;8.52;53.96;101164.97;5205116;28;20455;-43
2022/04/04 04:46:10;;;;;;;13.02;6.15;;;;;;;8.51;54.12;101171.16;5201311;28;20485;-41
2022/04/04 04:48:43;;;;;;;21.83;8.05;;;;;;;8.51;53.96;101146.66;5190579;28;20958;-41
2022/04/04 04:51:15;;;;;;;15.63;6.93;;;;;;;8.50;53.89;101129.19;5198219;28;20485;-40
2022/04/04 04:53:48;;;;;;;20.85;7.65;;;;;;;8.53;53.78;101118.41;5193644;28;20425;-37
2022/04/04 04:56:20;;;;;;;18.93;7.93;;;;;;;8.54;53.78;101109.53;5197545;28;20437;-40
2022/04/04 04:58:53;;;;;;;15.30;6.97;;;;;;;8.54;53.93;101093.75;5206478;28;20427;-41
2022/04/04 05:01:27;;;;;;;22.67;8.90;;;;;;;8.56;53.68;101102.34;5190738;28;20796;-41
2022/04/04 05:03:59;;;;;;;16.75;7.00;;;;;;;8.57;54.06;101104.00;5197791;28;20421;-41
2022/04/04 05:06:32;;;;;;;16.05;7.70;;;;;;;8.57;53.81;101084.75;5193138;28;20450;-42
2022/04/04 05:09:04;;;;;;;16.85;8.40;;;;;;;8.56;53.82;101073.41;5211932;28;20531;-41
2022/04/04 05:11:37;;;;;;;19.17;7.55;;;;;;;8.55;53.63;101084.91;5201680;28;20515;-42
2022/04/04 05:14:15;;;;;;;16.15;6.65;;;;;;;8.53;53.85;101071.03;5199440;28;20432;-41
2022/04/04 05:16:49;;;;;;;11.32;6.43;;;;;;;8.50;53.96;101077.38;5206474;28;20430;-41
2022/04/04 05:19:22;;;;;;;14.60;5.65;;;;;;;8.45;53.56;101076.09;5220073;28;20997;-40
2022/04/04 05:21:54;;;;;;;17.40;6.63;;;;;;;8.37;54.10;101068.00;5216735;28;20420;-41
2022/04/04 05:24:28;;;;;;;11.38;5.53;;;;;;;8.35;53.93;101064.66;5219135;28;20457;-40
2022/04/04 05:27:01;;;;;;;15.35;4.97;;;;;;;8.24;54.06;101058.50;5215219;28;20532;-50
2022/04/04 05:29:33;;;;;;;10.52;5.43;;;;;;;8.23;53.98;101069.97;5218459;28;20415;-40
2022/04/04 05:32:08;;;;;;;9.90;5.03;;;;;;;8.16;53.93;101068.00;5206439;28;20531;-40
2022/04/04 05:34:40;;;;;;;10.70;5.33;;;;;;;8.06;54.22;101068.78;5202664;28;20401;-40
2022/04/04 05:37:13;;;;;;;10.45;5.35;;;;;;;8.00;54.47;101047.41;5226944;28;20482;-41
2022/04/04 05:39:46;;;;;;;7.75;5.40;;;;;;;8.01;54.47;101051.69;5235747;28;20885;-41
2022/04/04 05:42:18;;;;;;;9.88;5.35;;;;;;;7.99;54.21;101045.72;5191330;28;20469;-40
2022/04/04 05:44:50;;;;;;;12.85;5.80;;;;;;;8.00;54.24;101031.63;5200684;28;21573;-42
2022/04/04 05:47:26;;;;;;;10.30;5.93;;;;;;;7.98;54.26;101030.91;5212628;28;20498;-41
2022/04/04 05:49:58;;;;;;;9.48;5.22;;;;;;;7.98;54.22;101036.16;5198515;28;20498;-41
2022/04/04 05:52:31;;;;;;;11.25;5.95;;;;;;;7.99;54.16;101029.94;5196608;28;20425;-41
2022/04/04 05:55:03;;;;;;;8.60;5.30;;;;;;;7.91;54.42;101000.84;5209746;28;20508;-41
2022/04/04 05:57:39;;;;;;;10.55;5.63;;;;;;;7.96;54.29;101024.94;5191292;28;20500;-41
2022/04/04 06:00:14;;;;;;;10.77;5.60;;;;;;;7.94;54.42;101009.31;5214221;28;20413;-42
2022/04/04 06:02:48;;;;;;;11.70;5.83;;;;;;;7.96;54.39;101019.69;5210232;28;20410;-41
2022/04/04 06:05:20;;;;;;;9.15;5.15;;;;;;;7.93;54.34;101004.16;5207115;28;20506;-41
2022/04/04 06:07:53;;;;;;;13.48;5.50;;;;;;;7.75;54.42;100982.88;5203510;28;20475;-42
2022/04/04 06:10:26;;;;;;;12.63;6.37;;;;;;;7.95;54.45;101007.50;5202365;28;20612;-43
2022/04/04 06:12:58;;;;;;;16.73;5.78;;;;;;;7.88;54.42;100980.06;5196455;28;20979;-47
2022/04/04 06:15:31;;;;;;;11.48;6.60;;;;;;;7.96;54.36;100967.94;5187401;28;20469;-42
2022/04/04 06:18:05;;;;;;;14.27;6.00;;;;;;;7.95;54.47;100986.47;5188957;28;20442;-44
2022/04/04 06:20:38;;;;;;;11.30;5.78;;;;;;;7.82;54.43;100987.50;5193551;28;21072;-42
2022/04/04 06:23:11;;;;;;;15.18;6.40;;;;;;;7.77;54.66;100962.53;5189630;28;20452;-44
2022/04/04 06:25:48;;;;;;;10.27;5.40;;;;;;;7.86;54.69;100964.41;5185643;28;20409;-42
2022/04/04 06:28:21;;;;;;;12.40;5.72;;;;;;;7.84;54.80;100974.22;5197083;28;20783;-41
2022/04/04 06:30:54;;;;;;;14.40;6.53;;;;;;;7.83;54.74;100956.75;5202420;28;20442;-40
2022/04/04 06:33:28;;;;;;;14.50;6.82;;;;;;;7.81;54.95;100956.91;5209967;28;20850;-41
2022/04/04 06:36:01;;;;;;;16.73;6.72;;;;;;;7.83;54.81;100968.13;5201683;28;20803;-41
2022/04/04 06:38:33;;;;;;;18.67;7.50;;;;;;;7.84;55.03;100951.41;5208820;28;20484;-41
2022/04/04 06:41:07;;;;;;;14.30;7.13;;;;;;;7.85;55.08;100937.28;5205168;28;20431;-43
2022/04/04 06:43:40;;;;;;;14.52;7.20;;;;;;;7.90;55.09;100936.91;5205963;28;20914;-42
2022/04/04 06:46:13;;;;;;;16.92;7.72;;;;;;;7.90;55.07;100928.16;5214924;28;20413;-41
2022/04/04 06:48:48;;;;;;;20.15;7.15;;;;;;;7.90;55.10;100909.75;5206149;28;20537;-40
2022/04/04 06:51:21;;;;;;;28.67;7.47;;;;;;;7.89;55.38;100926.50;5198210;28;20897;-42
2022/04/04 06:53:53;;;;;;;19.48;8.13;;;;;;;7.91;55.50;100916.69;5205332;28;20768;-41
2022/04/04 06:56:26;;;;;;;22.02;7.97;;;;;;;7.92;55.50;100915.72;5201193;28;20481;-42
2022/04/04 06:58:58;;;;;;;17.67;7.10;;;;;;;7.71;55.51;100874.53;5203101;28;20857;-45
2022/04/04 07:01:31;;;;;;;22.73;7.55;;;;;;;7.85;55.69;100910.97;5195220;28;20510;-42
2022/04/04 07:04:06;;;;;;;20.57;8.43;;;;;;;7.81;55.84;100901.69;5207853;28;20436;-41
2022/04/04 07:06:38;;;;;;;27.20;8.50;;;;;;;7.77;56.04;100910.81;5212791;28;20529;-41
2022/04/04 07:09:11;;;;;;;20.30;7.88;;;;;;;7.74;56.18;100905.81;5205455;28;20429;-41
2022/04/04 07:11:43;;;;;;;18.83;8.17;;;;;;;7.69;56.12;100896.66;5197808;28;20450;-40
2022/04/04 07:14:16;;;;;;;22.48;8.00;;;;;;;7.63;56.03;100898.00;5207052;28;20519;-41
2022/04/04 07:16:51;;;;;;;18.27;8.27;;;;;;;7.67;56.05;100894.13;5188149;28;21159;-40
2022/04/04 07:19:30;;;;;;;17.30;7.68;;;;;;;7.44;56.38;100861.09;5196700;28;20495;-43
2022/04/04 07:22:03;;;;;;;25.97;8.90;;;;;;;7.67;56.38;100881.00;5202595;28;20439;-43
2022/04/04 07:24:35;;;;;;;17.63;7.70;;;;;;;7.64;56.46;100883.88;5217551;28;20423;-41
2022/04/04 07:27:08;;;;;;;17.40;7.55;;;;;;;7.58;56.61;100887.03;5214816;28;20422;-42
2022/04/04 07:29:41;;;;;;;19.40;7.07;;;;;;;7.57;56.84;100874.84;5200129;28;20816;-41
2022/04/04 07:32:14;;;;;;;20.50;8.15;;;;;;;7.59;56.85;100870.31;5203438;28;20435;-40
2022/04/04 07:34:47;;;;;;;17.70;7.33;;;;;;;7.61;56.83;100858.69;5207108;28;20488;-41
2022/04/04 07:37:20;;;;;;;23.30;8.15;;;;;;;7.59;56.88;100854.53;5173123;28;20415;-42
2022/04/04 07:39:52;;;;;;;19.50;7.95;;;;;;;7.65;57.00;100855.78;5200971;28;20418;-43
2022/04/04 07:42:25;;;;;;;20.37;8.07;;;;;;;7.67;56.99;100849.44;5205724;28;20423;-40
2022/04/04 07:44:57;;;;;;;19.60;8.05;;;;;;;7.68;57.13;100853.75;5215936;28;20979;-42
2022/04/04 07:47:30;;;;;;;25.52;8.23;;;;;;;7.65;57.02;100833.00;5203046;28;20855;-41
2022/04/04 07:50:06;;;;;;;22.27;8.35;;;;;;;7.67;57.18;100841.56;5191499;28;20421;-42
2022/04/04 07:52:40;;;;;;;24.83;7.32;;;;;;;7.60;57.32;100853.56;5198664;28;20759;-41
2022/04/04 07:55:12;;;;;;;23.88;8.40;;;;;;;7.62;57.32;100841.97;5208104;28;20793;-41
2022/04/04 07:57:45;;;;;;;19.35;7.05;;;;;;;7.65;57.45;100837.38;5203781;28;20403;-41
2022/04/04 08:00:18;;;;;;;19.73;7.77;;;;;;;7.63;57.61;100837.53;5204739;28;20512;-40
2022/04/04 08:02:50;;;;;;;24.02;8.90;;;;;;;7.65;57.56;100853.16;5202851;28;20421;-41
2022/04/04 08:05:26;;;;;;;19.57;7.17;;;;;;;7.65;57.66;100840.03;5203802;28;20485;-49
2022/04/04 08:07:58;;;;;;;27.67;8.20;;;;;;;7.51;57.72;100805.25;5186417;28;20448;-40
2022/04/04 08:10:30;;;;;;;26.17;9.20;;;;;;;7.60;57.80;100830.75;5192045;28;22028;-41
2022/04/04 08:13:03;;;;;;;17.83;7.55;;;;;;;7.60;57.62;100814.97;5202792;28;20414;-41
2022/04/04 08:15:36;;;;;;;20.90;7.47;;;;;;;7.61;57.80;100806.09;5213832;28;20887;-42
2022/04/04 08:18:08;;;;;;;28.60;8.52;;;;;;;7.60;57.74;100806.25;5202043;28;23597;-41
2022/04/04 08:20:43;;;;;;;31.27;9.45;;;;;;;7.61;57.88;100802.66;5196365;28;20767;-40
2022/04/04 08:23:15;;;;;;;25.00;8.02;;;;;;;7.62;57.99;100807.78;5208207;28;20500;-41
2022/04/04 08:25:47;;;;;;;26.43;8.83;;;;;;;7.60;58.13;100803.63;5200363;28;20419;-41
2022/04/04 08:28:20;;;;;;;27.15;8.65;;;;;;;7.58;57.99;100793.22;5187833;28;20441;-41
2022/04/04 08:30:52;;;;;;;23.38;8.68;;;;;;;7.58;58.29;100795.03;5193471;28;20477;-42
2022/04/04 08:33:27;;;;;;;25.35;8.27;;;;;;;7.52;58.41;100787.66;5198693;28;20897;-41
2022/04/04 08:36:03;;;;;;;30.38;7.72;;;;;;;7.58;58.47;100801.13;5197165;28;20489;-42
2022/04/04 08:38:38;;;;;;;29.80;9.63;;;;;;;7.57;58.39;100786.31;5199191;28;20429;-41
2022/04/04 08:41:11;;;;;;;21.02;9.10;;;;;;;7.60;58.41;100778.16;5201172;28;20426;-41
2022/04/04 08:43:44;;;;;;;23.55;8.02;;;;;;;7.61;58.71;100784.25;5190968;28;20419;-41
2022/04/04 08:46:17;;;;;;;30.38;8.80;;;;;;;7.62;58.62;100780.69;5199607;28;20797;-43
2022/04/04 08:48:52;;;;;;;29.30;9.40;;;;;;;7.64;58.64;100773.47;5186246;28;20845;-44
2022/04/04 08:51:26;;;;;;;30.52;8.45;;;;;;;7.63;58.78;100756.06;5199454;28;20429;-43
2022/04/04 08:53:58;;;;;;;27.05;8.70;;;;;;;7.68;58.72;100759.13;5199083;28;20479;-45
2022/04/04 08:56:32;;;;;;;19.15;7.85;;;;;;;7.74;58.87;100761.22;5205709;28;20421;-42
2022/04/04 08:59:04;;;;;;;24.23;8.10;;;;;;;7.79;58.83;100756.38;5210670;28;20438;-41
2022/04/04 09:01:36;;;;;;;21.42;7.90;;;;;;;7.85;58.93;100753.22;5201578;28;20854;-41
2022/04/04 09:04:17;;;;;;;23.55;8.73;;;;;;;7.88;58.89;100753.91;5204613;28;20429;-42
2022/04/04 09:06:53;;;;;;;25.70;8.30;;;;;;;7.71;58.94;100714.19;5209343;28;20914;-41
2022/04/04 09:09:27;;;;;;;25.23;9.38;;;;;;;7.93;59.07;100749.06;5205255;28;20452;-41
2022/04/04 09:12:08;;;;;;;25.38;8.05;;;;;;;7.96;59.07;100733.88;5200822;28;20492;-41
2022/04/04 09:14:45;;;;;;;21.73;7.07;;;;;;;7.98;59.10;100737.19;5198705;28;20413;-42
2022/04/04 09:17:21;;;;;;;28.67;9.00;;;;;;;8.02;59.20;100741.22;5198786;28;20462;-45
2022/04/04 09:19:54;;;;;;;30.52;7.95;;;;;;;8.05;59.19;100745.38;5200301;28;20512;-41
2022/04/04 09:22:28;;;;;;;22.52;7.90;;;;;;;8.07;59.14;100738.19;5197498;28;20824;-45
2022/04/04 09:25:02;;;;;;;14.65;6.72;;;;;;;8.08;59.26;100731.94;5193138;28;20536;-41
2022/04/04 09:27:36;;;;;;;16.25;5.65;;;;;;;8.05;59.19;100730.44;5204460;28;20420;-41
2022/04/04 09:30:21;;;;;;;18.40;6.82;;;;;;;8.04;59.42;100738.44;5203800;28;20787;-40
2022/04/04 09:32:55;;;;;;;23.65;7.15;;;;;;;8.03;59.45;100726.28;5198745;28;20439;-41
2022/04/04 09:35:32;;;;;;;18.52;7.13;;;;;;;8.10;59.55;100708.97;5209356;28;20412;-41
2022/04/04 09:38:16;;;;;;;26.50;6.93;;;;;;;8.08;59.30;100697.75;5213506;28;20407;-41
2022/04/04 09:40:48;;;;;;;20.00;6.18;;;;;;;8.22;59.21;100710.50;5204705;28;20420;-41
2022/04/04 09:43:21;;;;;;;17.83;6.30;;;;;;;8.26;59.26;100701.34;5203419;28;20871;-41
2022/04/04 09:46:11;;;;;;;21.33;6.30;;;;;;;8.23;59.35;100677.97;5200334;28;20436;-39
2022/04/04 09:49:06;;;;;;;21.85;6.45;;;;;;;8.28;59.43;100694.16;5192324;28;20433;-41
2022/04/04 09:51:42;;;;;;;14.98;5.25;;;;;;;8.32;59.63;100685.03;5188011;28;20927;-47
2022/04/04 09:54:18;;;;;;;13.63;5.30;;;;;;;8.38;59.58;100688.06;5193463;28;20505;-45
2022/04/04 09:56:57;;;;;;;12.98;4.78;;;;;;;8.41;59.52;100696.56;5189920;28;20672;-43
2022/04/04 09:59:30;;;;;;;17.17;5.32;;;;;;;8.40;59.54;100700.16;5212419;28;20425;-41
2022/04/04 10:02:03;;;;;;;17.20;6.13;;;;;;;8.43;59.67;100689.34;5191633;28;20508;-40
2022/04/04 10:04:36;;;;;;;16.17;5.00;;;;;;;8.38;59.50;100673.16;5190853;28;20832;-39
2022/04/04 10:07:11;;;;;;;17.35;5.07;;;;;;;8.45;59.71;100684.75;5202035;28;20418;-41
2022/04/04 10:09:46;;;;;;;18.63;5.53;;;;;;;8.43;59.75;100652.50;5199765;28;20441;-42
2022/04/04 10:12:18;;;;;;;18.13;4.50;;;;;;;8.51;59.82;100671.03;5188500;28;20421;-42
2022/04/04 10:14:51;;;;;;;17.65;5.68;;;;;;;8.55;59.79;100669.00;5195049;28;20492;-40
2022/04/04 10:17:24;;;;;;;19.83;5.53;;;;;;;8.59;59.81;100657.19;5196848;28;20529;-41
2022/04/04 10:19:58;;;;;;;17.75;4.93;;;;;;;8.62;59.74;100664.81;5200612;28;20511;-40
2022/04/04 10:22:31;;;;;;;14.23;5.28;;;;;;;8.64;59.99;100639.19;5202926;28;20424;-41
2022/04/04 10:25:07;;;;;;;24.00;5.03;;;;;;;8.43;59.84;100620.09;5196659;28;20539;-40
2022/04/04 10:27:40;;;;;;;21.90;6.32;;;;;;;8.25;60.00;100594.47;5195637;28;20480;-42
2022/04/04 10:30:13;;;;;;;16.40;5.50;;;;;;;8.70;59.89;100641.25;5203295;28;20414;-40
2022/04/04 10:32:52;;;;;;;12.98;4.63;;;;;;;8.76;60.02;100645.94;5192852;28;20636;-40
2022/04/04 10:36:04;;;;;;;17.63;5.78;;;;;;;8.78;59.95;100648.41;5204577;28;20419;-41
2022/04/04 10:38:40;;;;;;;16.40;4.65;;;;;;;8.68;60.05;100627.38;5212559;28;20452;-42
2022/04/04 10:41:18;;;;;;;18.00;5.35;;;;;;;8.85;60.06;100643.41;5212529;28;20482;-41
2022/04/04 10:43:52;;;;;;;14.97;4.77;;;;;;;8.88;60.19;100643.13;5215177;28;20795;-43
2022/04/04 10:46:27;;;;;;;15.90;4.82;;;;;;;8.85;60.22;100632.88;5211625;28;20441;-43
2022/04/04 10:49:03;;;;;;;16.92;5.47;;;;;;;8.92;60.06;100626.06;5200936;28;20431;-41
2022/04/04 10:51:37;;;;;;;12.30;4.78;;;;;;;8.84;60.29;100615.44;5214295;28;20487;-41
2022/04/04 10:54:11;;;;;;;12.85;4.25;;;;;;;8.84;60.29;100632.06;5235571;28;20789;-41
2022/04/04 10:56:46;;;;;;;10.38;3.47;;;;;;;8.96;60.23;100630.06;5206188;28;20418;-42
2022/04/04 10:59:28;;;;;;;9.93;3.80;;;;;;;8.98;60.44;100622.84;5190054;28;20607;-38
2022/04/04 11:02:02;;;;;;;12.75;4.03;;;;;;;9.02;60.31;100608.44;5207551;28;20516;-42
2022/04/04 11:04:36;;;;;;;13.38;4.15;;;;;;;9.06;60.49;100609.78;5205076;28;20453;-43
2022/04/04 11:10:06;;;;;;;8.90;3.90;;;;;;;9.12;60.52;100608.38;5218937;28;20842;-42
2022/04/04 11:13:07;;;;;;;9.55;3.25;;;;;;;9.11;60.54;100618.09;5192755;28;20994;-43
2022/04/04 11:15:45;;;;;;;11.47;4.60;;;;;;;9.12;60.75;100597.84;5197054;28;20507;-41
2022/04/04 11:18:17;;;;;;;9.90;4.07;;;;;;;9.13;60.57;100600.31;5192507;28;20940;-40
2022/04/04 11:20:53;;;;;;;8.88;3.72;;;;;;;9.19;60.78;100591.81;5193440;28;20830;-42
2022/04/04 11:23:34;;;;;;;7.35;3.20;;;;;;;9.23;60.86;100600.28;5211227;28;20419;-42
2022/04/04 11:26:08;;;;;;;9.45;3.45;;;;;;;9.25;60.77;100593.03;5202038;28;20523;-41
2022/04/04 11:28:42;;;;;;;12.53;3.83;;;;;;;9.25;60.86;100585.13;5208850;28;20894;-40
2022/04/04 11:31:16;;;;;;;10.80;3.67;;;;;;;9.25;60.93;100587.78;5220750;28;20444;-40
2022/04/04 11:33:51;;;;;;;12.53;4.03;;;;;;;9.30;60.96;100584.72;5225804;28;20416;-41
2022/04/04 11:37:01;;;;;;;15.60;4.72;;;;;;;9.32;61.09;100593.28;5198307;28;20442;-41
2022/04/04 11:39:35;;;;;;;15.13;4.93;;;;;;;9.29;61.17;100589.16;5194889;28;20444;-45
2022/04/04 11:42:09;;;;;;;13.93;5.30;;;;;;;9.33;61.23;100566.78;5200468;28;20426;-41
2022/04/04 11:44:52;;;;;;;12.93;4.82;;;;;;;9.38;61.21;100568.97;5198304;28;20449;-40
2022/04/04 11:47:25;;;;;;;17.55;5.80;;;;;;;9.45;61.34;100568.25;5191453;28;20413;-40
2022/04/04 11:50:03;;;;;;;16.13;5.82;;;;;;;9.50;61.13;100567.78;5196874;28;20535;-41
2022/04/04 11:52:47;;;;;;;15.65;5.72;;;;;;;9.55;61.23;100564.72;5212407;28;20419;-41
2022/04/04 11:55:23;;;;;;;17.45;7.15;;;;;;;9.50;61.40;100554.59;5192365;28;20465;-43
2022/04/04 11:57:58;;;;;;;19.83;7.18;;;;;;;9.20;61.37;100506.56;5207868;28;20416;-42
2022/04/04 12:00:35;;;;;;;18.55;6.78;;;;;;;9.61;61.40;100553.56;5214589;28;20434;-42
2022/04/04 12:03:10;;;;;;;21.95;7.18;;;;;;;9.65;61.40;100552.28;5215582;28;20430;-40